sensor_id;sensor_type;location;lat;lon;timestamp;P1;durP1;ratioP1;P2;durP2;ratioP2
38399;SDS011;24180;42.676;23.320;2023-05-29T00:00:12;8.47;;;7.23;;
38399;SDS011;24180;42.676;23.320;2023-05-29T00:02:38;7.50;;;6.80;;
38399;SDS011;24180;42.676;23.320;2023-05-29T00:05:10;10.77;;;7.80;;
38399;SDS011;24180;42.676;23.320;2023-05-29T00:07:39;10.10;;;7.90;;
38399;SDS011;24180;42.676;23.320;2023-05-29T00:10:05;12.57;;;10.77;;
38399;SDS011;24180;42.676;23.320;2023-05-29T00:12:32;8.70;;;7.90;;
38399;SDS011;24180;42.676;23.320;2023-05-29T00:14:58;8.40;;;7.27;;
38399;SDS011;24180;42.676;23.320;2023-05-29T00:17:23;9.50;;;7.63;;
38399;SDS011;24180;42.676;23.320;2023-05-29T00:19:49;9.97;;;7.77;;
38399;SDS011;24180;42.676;23.320;2023-05-29T00:22:15;8.87;;;7.97;;
38399;SDS011;24180;42.676;23.320;2023-05-29T00:24:40;9.97;;;7.80;;
38399;SDS011;24180;42.676;23.320;2023-05-29T00:27:06;8.80;;;8.00;;
38399;SDS011;24180;42.676;23.320;2023-05-29T00:29:31;9.27;;;7.53;;
38399;SDS011;24180;42.676;23.320;2023-05-29T00:31:57;7.97;;;7.17;;
38399;SDS011;24180;42.676;23.320;2023-05-29T00:34:22;8.27;;;7.53;;
38399;SDS011;24180;42.676;23.320;2023-05-29T00:36:48;8.27;;;7.10;;
38399;SDS011;24180;42.676;23.320;2023-05-29T00:39:14;8.20;;;7.33;;
38399;SDS011;24180;42.676;23.320;2023-05-29T00:41:40;9.47;;;7.53;;
38399;SDS011;24180;42.676;23.320;2023-05-29T00:44:05;9.70;;;7.67;;
38399;SDS011;24180;42.676;23.320;2023-05-29T00:46:31;8.60;;;7.60;;
38399;SDS011;24180;42.676;23.320;2023-05-29T00:49:01;8.43;;;7.63;;
38399;SDS011;24180;42.676;23.320;2023-05-29T00:51:27;8.13;;;7.10;;
38399;SDS011;24180;42.676;23.320;2023-05-29T00:53:54;8.40;;;7.70;;
38399;SDS011;24180;42.676;23.320;2023-05-29T00:56:20;8.80;;;8.00;;
38399;SDS011;24180;42.676;23.320;2023-05-29T00:58:46;8.80;;;7.37;;
38399;SDS011;24180;42.676;23.320;2023-05-29T01:01:14;8.73;;;7.83;;
38399;SDS011;24180;42.676;23.320;2023-05-29T01:03:41;8.17;;;7.47;;
38399;SDS011;24180;42.676;23.320;2023-05-29T01:06:07;8.80;;;8.00;;
38399;SDS011;24180;42.676;23.320;2023-05-29T01:08:35;8.73;;;8.00;;
38399;SDS011;24180;42.676;23.320;2023-05-29T01:11:03;8.37;;;7.50;;
38399;SDS011;24180;42.676;23.320;2023-05-29T01:13:49;8.40;;;7.50;;
38399;SDS011;24180;42.676;23.320;2023-05-29T01:16:26;8.60;;;7.80;;
38399;SDS011;24180;42.676;23.320;2023-05-29T01:19:22;8.67;;;7.77;;
38399;SDS011;24180;42.676;23.320;2023-05-29T01:22:12;8.40;;;7.60;;
38399;SDS011;24180;42.676;23.320;2023-05-29T01:24:58;9.00;;;8.10;;
38399;SDS011;24180;42.676;23.320;2023-05-29T01:27:46;9.00;;;8.10;;
38399;SDS011;24180;42.676;23.320;2023-05-29T01:30:12;8.80;;;7.90;;
38399;SDS011;24180;42.676;23.320;2023-05-29T01:32:40;9.80;;;8.50;;
38399;SDS011;24180;42.676;23.320;2023-05-29T01:35:07;8.87;;;8.07;;
38399;SDS011;24180;42.676;23.320;2023-05-29T01:37:33;12.47;;;7.87;;
38399;SDS011;24180;42.676;23.320;2023-05-29T01:39:58;11.10;;;8.00;;
38399;SDS011;24180;42.676;23.320;2023-05-29T01:42:25;9.17;;;8.23;;
38399;SDS011;24180;42.676;23.320;2023-05-29T01:44:52;9.80;;;8.30;;
38399;SDS011;24180;42.676;23.320;2023-05-29T01:47:18;10.43;;;8.23;;
38399;SDS011;24180;42.676;23.320;2023-05-29T01:49:47;9.07;;;8.27;;
38399;SDS011;24180;42.676;23.320;2023-05-29T01:52:15;10.53;;;8.93;;
38399;SDS011;24180;42.676;23.320;2023-05-29T01:54:40;10.97;;;8.43;;
38399;SDS011;24180;42.676;23.320;2023-05-29T01:57:06;10.07;;;8.53;;
38399;SDS011;24180;42.676;23.320;2023-05-29T01:59:32;9.63;;;8.37;;
38399;SDS011;24180;42.676;23.320;2023-05-29T02:02:05;10.53;;;8.17;;
38399;SDS011;24180;42.676;23.320;2023-05-29T02:04:31;9.43;;;8.20;;
38399;SDS011;24180;42.676;23.320;2023-05-29T02:06:56;8.77;;;7.90;;
38399;SDS011;24180;42.676;23.320;2023-05-29T02:09:23;9.83;;;8.40;;
38399;SDS011;24180;42.676;23.320;2023-05-29T02:11:48;8.77;;;7.97;;
38399;SDS011;24180;42.676;23.320;2023-05-29T02:14:13;9.83;;;8.07;;
38399;SDS011;24180;42.676;23.320;2023-05-29T02:16:39;8.93;;;7.93;;
38399;SDS011;24180;42.676;23.320;2023-05-29T02:19:06;8.10;;;7.40;;
38399;SDS011;24180;42.676;23.320;2023-05-29T02:21:31;10.30;;;8.53;;
38399;SDS011;24180;42.676;23.320;2023-05-29T02:23:57;8.83;;;8.03;;
38399;SDS011;24180;42.676;23.320;2023-05-29T02:26:22;8.90;;;8.10;;
38399;SDS011;24180;42.676;23.320;2023-05-29T02:28:48;8.60;;;7.90;;
38399;SDS011;24180;42.676;23.320;2023-05-29T02:31:13;8.80;;;7.90;;
38399;SDS011;24180;42.676;23.320;2023-05-29T02:33:38;12.03;;;8.10;;
38399;SDS011;24180;42.676;23.320;2023-05-29T02:36:04;8.47;;;7.67;;
38399;SDS011;24180;42.676;23.320;2023-05-29T02:38:36;9.90;;;8.43;;
38399;SDS011;24180;42.676;23.320;2023-05-29T02:41:02;8.60;;;7.70;;
38399;SDS011;24180;42.676;23.320;2023-05-29T02:43:27;10.03;;;8.97;;
38399;SDS011;24180;42.676;23.320;2023-05-29T02:45:53;8.90;;;8.00;;
38399;SDS011;24180;42.676;23.320;2023-05-29T02:48:18;11.23;;;8.87;;
38399;SDS011;24180;42.676;23.320;2023-05-29T02:50:43;10.10;;;9.10;;
38399;SDS011;24180;42.676;23.320;2023-05-29T02:53:09;10.00;;;9.10;;
38399;SDS011;24180;42.676;23.320;2023-05-29T02:55:35;9.30;;;8.50;;
38399;SDS011;24180;42.676;23.320;2023-05-29T02:58:01;12.00;;;9.00;;
38399;SDS011;24180;42.676;23.320;2023-05-29T03:00:27;9.80;;;8.73;;
38399;SDS011;24180;42.676;23.320;2023-05-29T03:02:53;11.27;;;8.57;;
38399;SDS011;24180;42.676;23.320;2023-05-29T03:05:20;13.13;;;8.80;;
38399;SDS011;24180;42.676;23.320;2023-05-29T03:07:45;10.10;;;9.10;;
38399;SDS011;24180;42.676;23.320;2023-05-29T03:10:11;10.23;;;9.17;;
38399;SDS011;24180;42.676;23.320;2023-05-29T03:12:37;9.80;;;8.73;;
38399;SDS011;24180;42.676;23.320;2023-05-29T03:15:04;10.17;;;9.00;;
38399;SDS011;24180;42.676;23.320;2023-05-29T03:17:30;10.17;;;9.17;;
38399;SDS011;24180;42.676;23.320;2023-05-29T03:19:55;10.20;;;9.27;;
38399;SDS011;24180;42.676;23.320;2023-05-29T03:22:22;12.97;;;8.97;;
38399;SDS011;24180;42.676;23.320;2023-05-29T03:24:47;9.67;;;8.70;;
38399;SDS011;24180;42.676;23.320;2023-05-29T03:27:13;12.07;;;9.03;;
38399;SDS011;24180;42.676;23.320;2023-05-29T03:29:39;11.50;;;8.90;;
38399;SDS011;24180;42.676;23.320;2023-05-29T03:32:04;9.93;;;8.90;;
38399;SDS011;24180;42.676;23.320;2023-05-29T03:34:30;11.63;;;9.57;;
38399;SDS011;24180;42.676;23.320;2023-05-29T03:36:56;11.07;;;9.97;;
38399;SDS011;24180;42.676;23.320;2023-05-29T03:39:22;10.53;;;9.10;;
38399;SDS011;24180;42.676;23.320;2023-05-29T03:41:47;10.67;;;9.50;;
38399;SDS011;24180;42.676;23.320;2023-05-29T03:44:12;10.97;;;9.43;;
38399;SDS011;24180;42.676;23.320;2023-05-29T03:46:38;11.27;;;10.10;;
38399;SDS011;24180;42.676;23.320;2023-05-29T03:49:03;14.27;;;9.87;;
38399;SDS011;24180;42.676;23.320;2023-05-29T03:51:29;11.57;;;10.23;;
38399;SDS011;24180;42.676;23.320;2023-05-29T03:53:55;12.03;;;9.40;;
38399;SDS011;24180;42.676;23.320;2023-05-29T03:56:21;11.30;;;9.93;;
38399;SDS011;24180;42.676;23.320;2023-05-29T03:58:46;13.47;;;10.17;;
38399;SDS011;24180;42.676;23.320;2023-05-29T04:01:12;10.30;;;9.30;;
38399;SDS011;24180;42.676;23.320;2023-05-29T04:03:37;10.77;;;9.67;;
38399;SDS011;24180;42.676;23.320;2023-05-29T04:06:03;11.93;;;9.43;;
38399;SDS011;24180;42.676;23.320;2023-05-29T04:08:28;10.57;;;9.47;;
38399;SDS011;24180;42.676;23.320;2023-05-29T04:10:54;10.30;;;9.20;;
38399;SDS011;24180;42.676;23.320;2023-05-29T04:13:19;10.23;;;9.33;;
38399;SDS011;24180;42.676;23.320;2023-05-29T04:15:45;11.47;;;9.57;;
38399;SDS011;24180;42.676;23.320;2023-05-29T04:18:11;10.67;;;9.50;;
38399;SDS011;24180;42.676;23.320;2023-05-29T04:20:36;12.13;;;9.10;;
38399;SDS011;24180;42.676;23.320;2023-05-29T04:23:02;10.70;;;9.63;;
38399;SDS011;24180;42.676;23.320;2023-05-29T04:25:28;10.73;;;9.60;;
38399;SDS011;24180;42.676;23.320;2023-05-29T04:27:53;13.70;;;10.13;;
38399;SDS011;24180;42.676;23.320;2023-05-29T04:30:19;10.97;;;9.90;;
38399;SDS011;24180;42.676;23.320;2023-05-29T04:32:45;13.87;;;10.40;;
38399;SDS011;24180;42.676;23.320;2023-05-29T04:35:11;17.80;;;10.63;;
38399;SDS011;24180;42.676;23.320;2023-05-29T04:37:38;14.87;;;10.20;;
38399;SDS011;24180;42.676;23.320;2023-05-29T04:40:07;12.13;;;10.40;;
38399;SDS011;24180;42.676;23.320;2023-05-29T04:42:36;11.03;;;9.90;;
38399;SDS011;24180;42.676;23.320;2023-05-29T04:45:03;13.47;;;9.83;;
38399;SDS011;24180;42.676;23.320;2023-05-29T04:47:32;14.53;;;10.93;;
38399;SDS011;24180;42.676;23.320;2023-05-29T04:50:00;14.43;;;10.27;;
38399;SDS011;24180;42.676;23.320;2023-05-29T04:52:26;11.67;;;9.93;;
38399;SDS011;24180;42.676;23.320;2023-05-29T04:54:52;14.43;;;10.10;;
38399;SDS011;24180;42.676;23.320;2023-05-29T04:57:18;12.27;;;10.70;;
38399;SDS011;24180;42.676;23.320;2023-05-29T04:59:43;10.73;;;9.57;;
38399;SDS011;24180;42.676;23.320;2023-05-29T05:02:09;9.70;;;8.70;;
38399;SDS011;24180;42.676;23.320;2023-05-29T05:04:35;10.60;;;9.50;;
38399;SDS011;24180;42.676;23.320;2023-05-29T05:07:00;12.83;;;11.73;;
38399;SDS011;24180;42.676;23.320;2023-05-29T05:09:27;10.57;;;9.63;;
38399;SDS011;24180;42.676;23.320;2023-05-29T05:11:52;10.43;;;9.43;;
38399;SDS011;24180;42.676;23.320;2023-05-29T05:14:17;13.50;;;10.37;;
38399;SDS011;24180;42.676;23.320;2023-05-29T05:16:43;9.23;;;7.90;;
38399;SDS011;24180;42.676;23.320;2023-05-29T05:19:08;9.80;;;9.00;;
38399;SDS011;24180;42.676;23.320;2023-05-29T05:21:34;9.23;;;8.23;;
38399;SDS011;24180;42.676;23.320;2023-05-29T05:24:00;9.17;;;8.30;;
38399;SDS011;24180;42.676;23.320;2023-05-29T05:26:25;14.73;;;10.50;;
38399;SDS011;24180;42.676;23.320;2023-05-29T05:28:53;14.03;;;11.27;;
38399;SDS011;24180;42.676;23.320;2023-05-29T05:31:19;14.13;;;11.60;;
38399;SDS011;24180;42.676;23.320;2023-05-29T05:33:44;17.83;;;11.93;;
38399;SDS011;24180;42.676;23.320;2023-05-29T05:36:10;18.17;;;10.97;;
38399;SDS011;24180;42.676;23.320;2023-05-29T05:38:36;17.80;;;12.77;;
38399;SDS011;24180;42.676;23.320;2023-05-29T05:41:01;16.43;;;11.83;;
38399;SDS011;24180;42.676;23.320;2023-05-29T05:43:27;18.93;;;11.63;;
38399;SDS011;24180;42.676;23.320;2023-05-29T05:45:54;12.63;;;10.80;;
38399;SDS011;24180;42.676;23.320;2023-05-29T05:48:19;14.90;;;10.43;;
38399;SDS011;24180;42.676;23.320;2023-05-29T05:50:44;16.20;;;10.53;;
38399;SDS011;24180;42.676;23.320;2023-05-29T05:53:10;13.57;;;11.07;;
38399;SDS011;24180;42.676;23.320;2023-05-29T05:55:35;14.00;;;9.27;;
38399;SDS011;24180;42.676;23.320;2023-05-29T05:58:01;11.07;;;8.37;;
38399;SDS011;24180;42.676;23.320;2023-05-29T06:00:26;11.13;;;7.57;;
38399;SDS011;24180;42.676;23.320;2023-05-29T06:02:53;9.50;;;7.47;;
38399;SDS011;24180;42.676;23.320;2023-05-29T06:05:18;6.97;;;6.37;;
38399;SDS011;24180;42.676;23.320;2023-05-29T06:07:44;7.07;;;6.43;;
38399;SDS011;24180;42.676;23.320;2023-05-29T06:10:09;7.83;;;6.80;;
38399;SDS011;24180;42.676;23.320;2023-05-29T06:12:35;8.33;;;6.67;;
38399;SDS011;24180;42.676;23.320;2023-05-29T06:15:01;6.60;;;6.10;;
38399;SDS011;24180;42.676;23.320;2023-05-29T06:17:27;9.60;;;6.27;;
38399;SDS011;24180;42.676;23.320;2023-05-29T06:19:53;7.90;;;7.10;;
38399;SDS011;24180;42.676;23.320;2023-05-29T06:22:19;8.43;;;7.67;;
38399;SDS011;24180;42.676;23.320;2023-05-29T06:24:45;12.93;;;8.63;;
38399;SDS011;24180;42.676;23.320;2023-05-29T06:27:10;8.50;;;7.80;;
38399;SDS011;24180;42.676;23.320;2023-05-29T06:29:36;20.00;;;18.60;;
38399;SDS011;24180;42.676;23.320;2023-05-29T06:32:01;40.30;;;37.87;;
38399;SDS011;24180;42.676;23.320;2023-05-29T06:34:27;17.73;;;16.47;;
38399;SDS011;24180;42.676;23.320;2023-05-29T06:36:52;11.10;;;10.10;;
38399;SDS011;24180;42.676;23.320;2023-05-29T06:39:17;9.10;;;8.27;;
38399;SDS011;24180;42.676;23.320;2023-05-29T06:41:45;13.67;;;12.47;;
38399;SDS011;24180;42.676;23.320;2023-05-29T06:44:10;16.20;;;10.60;;
38399;SDS011;24180;42.676;23.320;2023-05-29T06:46:36;7.40;;;7.00;;
38399;SDS011;24180;42.676;23.320;2023-05-29T06:49:01;6.73;;;6.00;;
38399;SDS011;24180;42.676;23.320;2023-05-29T06:51:26;5.13;;;4.73;;
38399;SDS011;24180;42.676;23.320;2023-05-29T06:53:52;5.50;;;5.10;;
38399;SDS011;24180;42.676;23.320;2023-05-29T06:56:17;7.70;;;5.77;;
38399;SDS011;24180;42.676;23.320;2023-05-29T06:58:43;6.17;;;5.57;;
38399;SDS011;24180;42.676;23.320;2023-05-29T07:01:09;6.17;;;5.67;;
38399;SDS011;24180;42.676;23.320;2023-05-29T07:03:34;13.77;;;7.27;;
38399;SDS011;24180;42.676;23.320;2023-05-29T07:06:01;7.67;;;6.93;;
38399;SDS011;24180;42.676;23.320;2023-05-29T07:08:27;7.43;;;6.77;;
38399;SDS011;24180;42.676;23.320;2023-05-29T07:10:53;6.27;;;5.63;;
38399;SDS011;24180;42.676;23.320;2023-05-29T07:13:18;8.83;;;5.93;;
38399;SDS011;24180;42.676;23.320;2023-05-29T07:15:44;6.70;;;5.97;;
38399;SDS011;24180;42.676;23.320;2023-05-29T07:18:10;6.43;;;5.90;;
38399;SDS011;24180;42.676;23.320;2023-05-29T07:20:38;5.73;;;5.17;;
38399;SDS011;24180;42.676;23.320;2023-05-29T07:23:03;5.30;;;4.87;;
38399;SDS011;24180;42.676;23.320;2023-05-29T07:25:29;5.30;;;4.90;;
38399;SDS011;24180;42.676;23.320;2023-05-29T07:27:55;6.43;;;5.40;;
38399;SDS011;24180;42.676;23.320;2023-05-29T07:30:20;6.20;;;5.70;;
38399;SDS011;24180;42.676;23.320;2023-05-29T07:32:46;5.53;;;5.10;;
38399;SDS011;24180;42.676;23.320;2023-05-29T07:35:11;6.60;;;6.10;;
38399;SDS011;24180;42.676;23.320;2023-05-29T07:37:37;6.33;;;5.90;;
38399;SDS011;24180;42.676;23.320;2023-05-29T07:40:02;8.27;;;7.67;;
38399;SDS011;24180;42.676;23.320;2023-05-29T07:42:34;10.13;;;9.33;;
38399;SDS011;24180;42.676;23.320;2023-05-29T07:44:59;10.27;;;9.67;;
38399;SDS011;24180;42.676;23.320;2023-05-29T07:47:25;9.47;;;8.67;;
38399;SDS011;24180;42.676;23.320;2023-05-29T07:49:50;9.33;;;8.53;;
38399;SDS011;24180;42.676;23.320;2023-05-29T07:52:17;9.57;;;8.97;;
38399;SDS011;24180;42.676;23.320;2023-05-29T07:54:42;11.43;;;10.60;;
38399;SDS011;24180;42.676;23.320;2023-05-29T07:57:08;13.47;;;12.53;;
38399;SDS011;24180;42.676;23.320;2023-05-29T07:59:36;11.20;;;10.33;;
38399;SDS011;24180;42.676;23.320;2023-05-29T08:02:03;11.70;;;10.67;;
38399;SDS011;24180;42.676;23.320;2023-05-29T08:04:29;8.33;;;7.63;;
38399;SDS011;24180;42.676;23.320;2023-05-29T08:06:55;13.40;;;12.53;;
38399;SDS011;24180;42.676;23.320;2023-05-29T08:09:21;6.50;;;6.00;;
38399;SDS011;24180;42.676;23.320;2023-05-29T08:11:46;9.37;;;8.67;;
38399;SDS011;24180;42.676;23.320;2023-05-29T08:14:13;7.50;;;7.10;;
38399;SDS011;24180;42.676;23.320;2023-05-29T08:16:39;4.87;;;4.43;;
38399;SDS011;24180;42.676;23.320;2023-05-29T08:19:05;5.43;;;5.10;;
38399;SDS011;24180;42.676;23.320;2023-05-29T08:21:31;5.33;;;4.97;;
38399;SDS011;24180;42.676;23.320;2023-05-29T08:23:59;6.33;;;5.73;;
38399;SDS011;24180;42.676;23.320;2023-05-29T08:26:27;5.70;;;5.27;;
38399;SDS011;24180;42.676;23.320;2023-05-29T08:28:52;5.03;;;4.30;;
38399;SDS011;24180;42.676;23.320;2023-05-29T08:31:17;4.33;;;4.03;;
38399;SDS011;24180;42.676;23.320;2023-05-29T08:33:43;5.10;;;4.80;;
38399;SDS011;24180;42.676;23.320;2023-05-29T08:36:09;6.30;;;5.13;;
38399;SDS011;24180;42.676;23.320;2023-05-29T08:38:34;5.23;;;4.60;;
38399;SDS011;24180;42.676;23.320;2023-05-29T08:41:00;5.10;;;4.60;;
38399;SDS011;24180;42.676;23.320;2023-05-29T08:43:30;5.47;;;4.93;;
38399;SDS011;24180;42.676;23.320;2023-05-29T08:45:59;8.00;;;4.80;;
38399;SDS011;24180;42.676;23.320;2023-05-29T08:48:26;4.87;;;4.47;;
38399;SDS011;24180;42.676;23.320;2023-05-29T08:50:54;6.40;;;5.80;;
38399;SDS011;24180;42.676;23.320;2023-05-29T08:53:24;8.32;;;7.82;;
38399;SDS011;24180;42.676;23.320;2023-05-29T08:55:51;6.25;;;5.75;;
38399;SDS011;24180;42.676;23.320;2023-05-29T08:58:22;5.65;;;5.20;;
38399;SDS011;24180;42.676;23.320;2023-05-29T09:00:48;5.50;;;4.50;;
38399;SDS011;24180;42.676;23.320;2023-05-29T09:03:15;5.80;;;5.40;;
38399;SDS011;24180;42.676;23.320;2023-05-29T09:05:41;7.22;;;5.03;;
38399;SDS011;24180;42.676;23.320;2023-05-29T09:08:08;7.65;;;7.00;;
38399;SDS011;24180;42.676;23.320;2023-05-29T09:10:33;6.63;;;6.13;;
38399;SDS011;24180;42.676;23.320;2023-05-29T09:12:59;6.15;;;5.63;;
38399;SDS011;24180;42.676;23.320;2023-05-29T09:15:25;6.22;;;5.78;;
38399;SDS011;24180;42.676;23.320;2023-05-29T09:17:57;5.40;;;5.00;;
38399;SDS011;24180;42.676;23.320;2023-05-29T09:20:23;6.05;;;5.45;;
38399;SDS011;24180;42.676;23.320;2023-05-29T09:25:25;5.18;;;4.78;;
38399;SDS011;24180;42.676;23.320;2023-05-29T09:27:56;4.53;;;4.13;;
38399;SDS011;24180;42.676;23.320;2023-05-29T09:30:33;5.55;;;4.60;;
38399;SDS011;24180;42.676;23.320;2023-05-29T09:33:01;7.70;;;4.60;;
38399;SDS011;24180;42.676;23.320;2023-05-29T09:38:05;5.30;;;4.90;;
38399;SDS011;24180;42.676;23.320;2023-05-29T09:40:37;4.70;;;4.40;;
38399;SDS011;24180;42.676;23.320;2023-05-29T09:45:36;5.20;;;4.80;;
38399;SDS011;24180;42.676;23.320;2023-05-29T09:48:11;5.32;;;4.93;;
38399;SDS011;24180;42.676;23.320;2023-05-29T09:50:39;7.60;;;5.57;;
38399;SDS011;24180;42.676;23.320;2023-05-29T09:53:15;5.88;;;5.43;;
38399;SDS011;24180;42.676;23.320;2023-05-29T09:55:50;5.43;;;5.03;;
38399;SDS011;24180;42.676;23.320;2023-05-29T09:58:19;5.57;;;5.18;;
38399;SDS011;24180;42.676;23.320;2023-05-29T10:00:46;5.10;;;4.60;;
38399;SDS011;24180;42.676;23.320;2023-05-29T10:03:12;4.85;;;4.55;;
38399;SDS011;24180;42.676;23.320;2023-05-29T10:05:42;5.72;;;5.00;;
38399;SDS011;24180;42.676;23.320;2023-05-29T10:08:10;5.53;;;5.07;;
38399;SDS011;24180;42.676;23.320;2023-05-29T10:10:38;14.50;;;5.20;;
38399;SDS011;24180;42.676;23.320;2023-05-29T10:13:10;6.10;;;5.00;;
38399;SDS011;24180;42.676;23.320;2023-05-29T10:15:41;5.30;;;4.80;;
38399;SDS011;24180;42.676;23.320;2023-05-29T10:18:20;6.32;;;4.20;;
38399;SDS011;24180;42.676;23.320;2023-05-29T10:20:49;16.63;;;5.88;;
38399;SDS011;24180;42.676;23.320;2023-05-29T10:23:16;5.63;;;4.95;;
38399;SDS011;24180;42.676;23.320;2023-05-29T10:25:46;6.95;;;6.43;;
38399;SDS011;24180;42.676;23.320;2023-05-29T10:28:16;5.55;;;5.15;;
38399;SDS011;24180;42.676;23.320;2023-05-29T10:30:50;5.72;;;4.70;;
38399;SDS011;24180;42.676;23.320;2023-05-29T10:36:16;5.00;;;4.60;;
38399;SDS011;24180;42.676;23.320;2023-05-29T10:38:44;5.90;;;5.50;;
38399;SDS011;24180;42.676;23.320;2023-05-29T10:41:29;5.53;;;5.13;;
38399;SDS011;24180;42.676;23.320;2023-05-29T10:43:55;8.93;;;8.18;;
38399;SDS011;24180;42.676;23.320;2023-05-29T10:49:16;5.45;;;4.60;;
38399;SDS011;24180;42.676;23.320;2023-05-29T10:51:45;6.20;;;4.85;;
38399;SDS011;24180;42.676;23.320;2023-05-29T10:54:11;4.82;;;4.40;;
38399;SDS011;24180;42.676;23.320;2023-05-29T10:56:38;5.95;;;5.43;;
38399;SDS011;24180;42.676;23.320;2023-05-29T10:59:06;7.10;;;6.60;;
38399;SDS011;24180;42.676;23.320;2023-05-29T11:01:33;5.57;;;5.07;;
38399;SDS011;24180;42.676;23.320;2023-05-29T11:06:40;6.25;;;4.88;;
38399;SDS011;24180;42.676;23.320;2023-05-29T11:09:10;6.53;;;5.47;;
38399;SDS011;24180;42.676;23.320;2023-05-29T11:17:44;7.00;;;5.15;;
38399;SDS011;24180;42.676;23.320;2023-05-29T11:23:22;5.78;;;5.28;;
38399;SDS011;24180;42.676;23.320;2023-05-29T11:25:50;6.82;;;5.47;;
38399;SDS011;24180;42.676;23.320;2023-05-29T11:28:16;6.03;;;5.43;;
38399;SDS011;24180;42.676;23.320;2023-05-29T11:30:45;6.63;;;5.97;;
38399;SDS011;24180;42.676;23.320;2023-05-29T11:33:15;13.77;;;6.22;;
38399;SDS011;24180;42.676;23.320;2023-05-29T11:35:53;6.32;;;5.65;;
38399;SDS011;24180;42.676;23.320;2023-05-29T11:38:23;6.72;;;6.13;;
38399;SDS011;24180;42.676;23.320;2023-05-29T11:40:50;5.90;;;5.40;;
38399;SDS011;24180;42.676;23.320;2023-05-29T11:43:16;8.30;;;6.00;;
38399;SDS011;24180;42.676;23.320;2023-05-29T11:45:41;7.13;;;5.57;;
38399;SDS011;24180;42.676;23.320;2023-05-29T11:48:07;7.70;;;5.30;;
38399;SDS011;24180;42.676;23.320;2023-05-29T11:50:33;11.75;;;6.38;;
38399;SDS011;24180;42.676;23.320;2023-05-29T11:53:01;6.50;;;6.10;;
38399;SDS011;24180;42.676;23.320;2023-05-29T11:55:27;9.45;;;8.75;;
38399;SDS011;24180;42.676;23.320;2023-05-29T11:57:57;40.35;;;9.98;;
38399;SDS011;24180;42.676;23.320;2023-05-29T12:00:24;33.58;;;9.23;;
38399;SDS011;24180;42.676;23.320;2023-05-29T12:02:50;9.00;;;8.05;;
38399;SDS011;24180;42.676;23.320;2023-05-29T12:05:16;149.27;;;23.23;;
38399;SDS011;24180;42.676;23.320;2023-05-29T12:07:52;101.18;;;20.73;;
38399;SDS011;24180;42.676;23.320;2023-05-29T12:10:22;35.92;;;10.30;;
38399;SDS011;24180;42.676;23.320;2023-05-29T12:12:58;24.33;;;8.77;;
38399;SDS011;24180;42.676;23.320;2023-05-29T12:15:25;15.32;;;6.00;;
38399;SDS011;24180;42.676;23.320;2023-05-29T12:17:51;14.43;;;6.10;;
38399;SDS011;24180;42.676;23.320;2023-05-29T12:20:18;8.73;;;6.82;;
38399;SDS011;24180;42.676;23.320;2023-05-29T12:22:47;8.18;;;6.70;;
38399;SDS011;24180;42.676;23.320;2023-05-29T12:25:16;12.95;;;9.02;;
38399;SDS011;24180;42.676;23.320;2023-05-29T12:27:43;8.25;;;6.88;;
38399;SDS011;24180;42.676;23.320;2023-05-29T12:30:20;7.20;;;6.50;;
38399;SDS011;24180;42.676;23.320;2023-05-29T12:32:47;10.35;;;7.90;;
38399;SDS011;24180;42.676;23.320;2023-05-29T12:35:14;14.20;;;7.77;;
38399;SDS011;24180;42.676;23.320;2023-05-29T12:37:59;66.18;;;17.05;;
38399;SDS011;24180;42.676;23.320;2023-05-29T12:40:31;200.37;;;29.83;;
38399;SDS011;24180;42.676;23.320;2023-05-29T12:43:02;13.03;;;8.63;;
38399;SDS011;24180;42.676;23.320;2023-05-29T12:45:30;9.17;;;8.37;;
38399;SDS011;24180;42.676;23.320;2023-05-29T12:47:58;16.37;;;9.67;;
38399;SDS011;24180;42.676;23.320;2023-05-29T12:50:28;10.70;;;9.30;;
38399;SDS011;24180;42.676;23.320;2023-05-29T12:55:24;11.60;;;9.33;;
38399;SDS011;24180;42.676;23.320;2023-05-29T12:57:50;11.73;;;8.50;;
38399;SDS011;24180;42.676;23.320;2023-05-29T13:00:16;8.73;;;7.93;;
38399;SDS011;24180;42.676;23.320;2023-05-29T13:02:42;8.57;;;7.47;;
38399;SDS011;24180;42.676;23.320;2023-05-29T13:05:08;10.63;;;7.30;;
38399;SDS011;24180;42.676;23.320;2023-05-29T13:07:34;9.13;;;8.20;;
38399;SDS011;24180;42.676;23.320;2023-05-29T13:10:00;7.43;;;6.83;;
38399;SDS011;24180;42.676;23.320;2023-05-29T13:12:27;6.83;;;6.33;;
38399;SDS011;24180;42.676;23.320;2023-05-29T13:14:52;9.00;;;6.93;;
38399;SDS011;24180;42.676;23.320;2023-05-29T13:17:20;9.97;;;7.23;;
38399;SDS011;24180;42.676;23.320;2023-05-29T13:19:46;8.73;;;7.93;;
38399;SDS011;24180;42.676;23.320;2023-05-29T13:22:12;9.13;;;8.27;;
38399;SDS011;24180;42.676;23.320;2023-05-29T13:24:37;9.57;;;8.17;;
38399;SDS011;24180;42.676;23.320;2023-05-29T13:27:03;7.83;;;7.20;;
38399;SDS011;24180;42.676;23.320;2023-05-29T13:29:29;141.35;;;23.50;;
38399;SDS011;24180;42.676;23.320;2023-05-29T13:31:54;35.72;;;11.45;;
38399;SDS011;24180;42.676;23.320;2023-05-29T13:34:19;98.20;;;17.57;;
38399;SDS011;24180;42.676;23.320;2023-05-29T13:36:45;9.07;;;6.32;;
38399;SDS011;24180;42.676;23.320;2023-05-29T13:39:10;12.77;;;8.00;;
38399;SDS011;24180;42.676;23.320;2023-05-29T13:41:36;7.20;;;6.60;;
38399;SDS011;24180;42.676;23.320;2023-05-29T13:44:01;7.53;;;6.82;;
38399;SDS011;24180;42.676;23.320;2023-05-29T13:46:27;8.03;;;6.70;;
38399;SDS011;24180;42.676;23.320;2023-05-29T13:48:52;8.82;;;7.47;;
38399;SDS011;24180;42.676;23.320;2023-05-29T13:51:18;7.70;;;7.03;;
38399;SDS011;24180;42.676;23.320;2023-05-29T13:53:43;9.30;;;8.60;;
38399;SDS011;24180;42.676;23.320;2023-05-29T13:56:09;8.40;;;7.60;;
38399;SDS011;24180;42.676;23.320;2023-05-29T13:58:34;6.80;;;6.30;;
38399;SDS011;24180;42.676;23.320;2023-05-29T14:00:59;9.32;;;8.63;;
38399;SDS011;24180;42.676;23.320;2023-05-29T14:03:25;8.70;;;7.28;;
38399;SDS011;24180;42.676;23.320;2023-05-29T14:05:53;9.88;;;7.45;;
38399;SDS011;24180;42.676;23.320;2023-05-29T14:08:19;8.82;;;7.05;;
38399;SDS011;24180;42.676;23.320;2023-05-29T14:10:45;5.85;;;5.32;;
38399;SDS011;24180;42.676;23.320;2023-05-29T14:13:10;4.60;;;4.20;;
38399;SDS011;24180;42.676;23.320;2023-05-29T14:15:36;5.18;;;4.40;;
38399;SDS011;24180;42.676;23.320;2023-05-29T14:18:01;6.63;;;6.32;;
38399;SDS011;24180;42.676;23.320;2023-05-29T14:20:27;6.45;;;6.05;;
38399;SDS011;24180;42.676;23.320;2023-05-29T14:22:53;6.60;;;5.55;;
38399;SDS011;24180;42.676;23.320;2023-05-29T14:25:19;5.35;;;4.43;;
38399;SDS011;24180;42.676;23.320;2023-05-29T14:27:45;4.70;;;4.40;;
38399;SDS011;24180;42.676;23.320;2023-05-29T14:30:11;5.07;;;4.57;;
38399;SDS011;24180;42.676;23.320;2023-05-29T14:32:36;6.20;;;5.80;;
38399;SDS011;24180;42.676;23.320;2023-05-29T14:35:02;8.30;;;5.90;;
38399;SDS011;24180;42.676;23.320;2023-05-29T14:37:27;5.22;;;4.75;;
38399;SDS011;24180;42.676;23.320;2023-05-29T14:39:53;4.72;;;4.32;;
38399;SDS011;24180;42.676;23.320;2023-05-29T14:42:18;7.30;;;6.80;;
38399;SDS011;24180;42.676;23.320;2023-05-29T14:44:44;7.32;;;6.63;;
38399;SDS011;24180;42.676;23.320;2023-05-29T14:47:09;6.90;;;5.55;;
38399;SDS011;24180;42.676;23.320;2023-05-29T14:49:35;5.60;;;5.00;;
38399;SDS011;24180;42.676;23.320;2023-05-29T14:52:01;5.65;;;5.22;;
38399;SDS011;24180;42.676;23.320;2023-05-29T14:54:28;4.20;;;3.90;;